sensor_id;sensor_type;location;lat;lon;timestamp;pressure;altitude;pressure_sealevel;temperature;humidity
35331;BME280;21441;52.190;20.910;2023-02-12T00:01:24;101399.19;;;1.36;100.00
35331;BME280;21441;52.190;20.910;2023-02-12T00:03:53;101403.31;;;1.24;100.00
35331;BME280;21441;52.190;20.910;2023-02-12T00:06:22;101402.63;;;1.21;100.00
35331;BME280;21441;52.190;20.910;2023-02-12T00:08:49;101407.38;;;1.14;100.00
35331;BME280;21441;52.190;20.910;2023-02-12T00:11:17;101411.16;;;1.09;100.00
35331;BME280;21441;52.190;20.910;2023-02-12T00:13:44;101414.25;;;1.17;100.00
35331;BME280;21441;52.190;20.910;2023-02-12T00:16:12;101424.84;;;1.15;100.00
35331;BME280;21441;52.190;20.910;2023-02-12T00:18:39;101414.81;;;1.06;100.00
35331;BME280;21441;52.190;20.910;2023-02-12T00:21:06;101432.53;;;1.18;100.00
35331;BME280;21441;52.190;20.910;2023-02-12T00:23:36;101444.91;;;1.16;100.00
35331;BME280;21441;52.190;20.910;2023-02-12T00:26:04;101449.25;;;1.17;100.00
35331;BME280;21441;52.190;20.910;2023-02-12T00:28:31;101456.31;;;1.17;100.00
35331;BME280;21441;52.190;20.910;2023-02-12T00:31:02;101467.34;;;1.23;100.00
35331;BME280;21441;52.190;20.910;2023-02-12T00:33:30;101454.44;;;1.19;100.00
35331;BME280;21441;52.190;20.910;2023-02-12T00:35:57;101464.59;;;1.25;100.00
35331;BME280;21441;52.190;20.910;2023-02-12T00:38:24;101456.97;;;1.20;100.00
35331;BME280;21441;52.190;20.910;2023-02-12T00:40:53;101463.09;;;1.21;100.00
35331;BME280;21441;52.190;20.910;2023-02-12T00:43:20;101459.69;;;1.19;100.00
35331;BME280;21441;52.190;20.910;2023-02-12T00:45:47;101463.94;;;1.21;100.00
35331;BME280;21441;52.190;20.910;2023-02-12T00:48:15;101467.41;;;1.22;100.00
35331;BME280;21441;52.190;20.910;2023-02-12T00:50:43;101475.31;;;1.22;100.00
35331;BME280;21441;52.190;20.910;2023-02-12T00:53:10;101486.66;;;1.22;100.00
35331;BME280;21441;52.190;20.910;2023-02-12T00:55:38;101501.59;;;1.22;100.00
35331;BME280;21441;52.190;20.910;2023-02-12T00:58:06;101497.41;;;1.18;100.00
35331;BME280;21441;52.190;20.910;2023-02-12T01:00:34;101495.72;;;1.17;100.00
35331;BME280;21441;52.190;20.910;2023-02-12T01:03:01;101499.59;;;1.10;100.00
35331;BME280;21441;52.190;20.910;2023-02-12T01:05:29;101495.34;;;1.07;100.00
35331;BME280;21441;52.190;20.910;2023-02-12T01:07:56;101508.47;;;1.07;100.00
35331;BME280;21441;52.190;20.910;2023-02-12T01:10:24;101511.81;;;1.11;100.00
35331;BME280;21441;52.190;20.910;2023-02-12T01:12:51;101518.84;;;1.10;100.00
35331;BME280;21441;52.190;20.910;2023-02-12T01:15:20;101527.19;;;1.01;100.00
35331;BME280;21441;52.190;20.910;2023-02-12T01:17:47;101527.06;;;1.04;100.00
35331;BME280;21441;52.190;20.910;2023-02-12T01:20:15;101516.84;;;0.98;100.00
35331;BME280;21441;52.190;20.910;2023-02-12T01:22:43;101529.97;;;0.98;100.00
35331;BME280;21441;52.190;20.910;2023-02-12T01:25:10;101526.28;;;1.02;100.00
35331;BME280;21441;52.190;20.910;2023-02-12T01:27:37;101541.19;;;1.01;100.00
35331;BME280;21441;52.190;20.910;2023-02-12T01:30:05;101546.69;;;0.97;100.00
35331;BME280;21441;52.190;20.910;2023-02-12T01:32:34;101540.25;;;1.02;100.00
35331;BME280;21441;52.190;20.910;2023-02-12T01:35:02;101551.47;;;1.06;100.00
35331;BME280;21441;52.190;20.910;2023-02-12T01:37:29;101557.03;;;1.00;100.00
35331;BME280;21441;52.190;20.910;2023-02-12T01:39:56;101550.63;;;1.06;100.00
35331;BME280;21441;52.190;20.910;2023-02-12T01:42:23;101560.03;;;1.10;100.00
35331;BME280;21441;52.190;20.910;2023-02-12T01:48:01;101556.56;;;0.92;100.00
35331;BME280;21441;52.190;20.910;2023-02-12T01:50:28;101565.22;;;0.94;100.00
35331;BME280;21441;52.190;20.910;2023-02-12T01:52:55;101559.97;;;0.94;100.00
35331;BME280;21441;52.190;20.910;2023-02-12T01:55:23;101554.25;;;0.86;100.00
35331;BME280;21441;52.190;20.910;2023-02-12T01:57:50;101566.06;;;0.94;100.00
35331;BME280;21441;52.190;20.910;2023-02-12T02:00:19;101576.97;;;1.04;100.00
35331;BME280;21441;52.190;20.910;2023-02-12T02:02:47;101581.63;;;0.99;100.00
35331;BME280;21441;52.190;20.910;2023-02-12T02:05:27;101580.63;;;1.01;100.00
35331;BME280;21441;52.190;20.910;2023-02-12T02:07:56;101592.22;;;0.97;100.00
35331;BME280;21441;52.190;20.910;2023-02-12T02:10:24;101593.22;;;0.95;100.00
35331;BME280;21441;52.190;20.910;2023-02-12T02:12:51;101596.22;;;1.05;100.00
35331;BME280;21441;52.190;20.910;2023-02-12T02:15:35;101598.25;;;0.99;100.00
35331;BME280;21441;52.190;20.910;2023-02-12T02:18:06;101609.50;;;0.84;100.00
35331;BME280;21441;52.190;20.910;2023-02-12T02:20:45;101611.69;;;0.93;100.00
35331;BME280;21441;52.190;20.910;2023-02-12T02:26:16;101611.84;;;0.90;100.00
35331;BME280;21441;52.190;20.910;2023-02-12T02:28:58;101621.56;;;0.88;100.00
35331;BME280;21441;52.190;20.910;2023-02-12T02:31:31;101634.72;;;0.88;100.00
35331;BME280;21441;52.190;20.910;2023-02-12T02:34:02;101638.91;;;0.92;100.00
35331;BME280;21441;52.190;20.910;2023-02-12T02:36:36;101636.34;;;0.91;100.00
35331;BME280;21441;52.190;20.910;2023-02-12T02:39:07;101642.88;;;0.82;100.00
35331;BME280;21441;52.190;20.910;2023-02-12T02:41:37;101652.56;;;0.81;100.00
35331;BME280;21441;52.190;20.910;2023-02-12T02:44:06;101657.72;;;0.83;100.00
35331;BME280;21441;52.190;20.910;2023-02-12T02:46:38;101666.66;;;0.79;100.00
35331;BME280;21441;52.190;20.910;2023-02-12T02:49:09;101657.81;;;0.81;100.00
35331;BME280;21441;52.190;20.910;2023-02-12T02:51:40;101663.53;;;0.90;100.00
35331;BME280;21441;52.190;20.910;2023-02-12T02:54:09;101664.53;;;0.87;100.00
35331;BME280;21441;52.190;20.910;2023-02-12T02:56:40;101678.31;;;0.92;100.00
35331;BME280;21441;52.190;20.910;2023-02-12T02:59:10;101682.84;;;0.89;100.00
35331;BME280;21441;52.190;20.910;2023-02-12T03:01:41;101693.13;;;0.93;100.00
35331;BME280;21441;52.190;20.910;2023-02-12T03:04:11;101704.06;;;1.03;100.00
35331;BME280;21441;52.190;20.910;2023-02-12T03:06:40;101710.47;;;0.97;100.00
35331;BME280;21441;52.190;20.910;2023-02-12T03:09:12;101719.13;;;0.99;100.00
35331;BME280;21441;52.190;20.910;2023-02-12T03:11:41;101720.69;;;1.03;100.00
35331;BME280;21441;52.190;20.910;2023-02-12T03:14:09;101727.69;;;1.03;100.00
35331;BME280;21441;52.190;20.910;2023-02-12T03:16:38;101731.84;;;0.90;100.00
35331;BME280;21441;52.190;20.910;2023-02-12T03:19:09;101745.34;;;0.82;100.00
35331;BME280;21441;52.190;20.910;2023-02-12T03:21:40;101746.03;;;0.86;100.00
35331;BME280;21441;52.190;20.910;2023-02-12T03:24:10;101743.56;;;0.82;100.00
35331;BME280;21441;52.190;20.910;2023-02-12T03:26:40;101753.75;;;0.90;100.00
35331;BME280;21441;52.190;20.910;2023-02-12T03:29:09;101750.16;;;0.91;100.00
35331;BME280;21441;52.190;20.910;2023-02-12T03:31:38;101750.22;;;0.90;100.00
35331;BME280;21441;52.190;20.910;2023-02-12T03:34:10;101760.41;;;0.97;100.00
35331;BME280;21441;52.190;20.910;2023-02-12T03:36:42;101762.47;;;0.91;100.00
35331;BME280;21441;52.190;20.910;2023-02-12T03:39:12;101760.63;;;0.93;100.00
35331;BME280;21441;52.190;20.910;2023-02-12T03:41:43;101773.81;;;0.91;100.00
35331;BME280;21441;52.190;20.910;2023-02-12T03:44:14;101784.34;;;0.91;100.00
35331;BME280;21441;52.190;20.910;2023-02-12T03:46:44;101776.50;;;0.90;100.00
35331;BME280;21441;52.190;20.910;2023-02-12T03:49:18;101790.31;;;0.95;100.00
35331;BME280;21441;52.190;20.910;2023-02-12T03:51:47;101793.06;;;0.92;100.00
35331;BME280;21441;52.190;20.910;2023-02-12T03:54:15;101802.72;;;0.91;100.00
35331;BME280;21441;52.190;20.910;2023-02-12T03:56:45;101809.03;;;0.87;100.00
35331;BME280;21441;52.190;20.910;2023-02-12T03:59:16;101818.44;;;0.93;100.00
35331;BME280;21441;52.190;20.910;2023-02-12T04:01:44;101813.53;;;1.04;100.00
35331;BME280;21441;52.190;20.910;2023-02-12T04:04:11;101810.63;;;1.10;100.00
35331;BME280;21441;52.190;20.910;2023-02-12T04:06:40;101820.25;;;1.10;100.00
35331;BME280;21441;52.190;20.910;2023-02-12T04:09:08;101823.25;;;1.02;100.00
35331;BME280;21441;52.190;20.910;2023-02-12T04:11:40;101822.63;;;0.97;100.00
35331;BME280;21441;52.190;20.910;2023-02-12T04:14:13;101819.41;;;1.09;100.00
35331;BME280;21441;52.190;20.910;2023-02-12T04:16:44;101819.00;;;0.99;100.00
35331;BME280;21441;52.190;20.910;2023-02-12T04:19:14;101838.66;;;0.91;100.00
35331;BME280;21441;52.190;20.910;2023-02-12T04:21:47;101832.06;;;0.82;100.00
35331;BME280;21441;52.190;20.910;2023-02-12T04:24:18;101840.22;;;0.76;100.00
35331;BME280;21441;52.190;20.910;2023-02-12T04:26:47;101831.44;;;0.77;100.00
35331;BME280;21441;52.190;20.910;2023-02-12T04:29:16;101839.56;;;0.71;100.00
35331;BME280;21441;52.190;20.910;2023-02-12T04:31:48;101844.56;;;0.77;100.00
35331;BME280;21441;52.190;20.910;2023-02-12T04:34:17;101845.53;;;0.74;100.00
35331;BME280;21441;52.190;20.910;2023-02-12T04:36:49;101842.91;;;0.74;100.00
35331;BME280;21441;52.190;20.910;2023-02-12T04:39:20;101841.63;;;0.64;100.00
35331;BME280;21441;52.190;20.910;2023-02-12T04:41:49;101844.16;;;0.66;100.00
35331;BME280;21441;52.190;20.910;2023-02-12T04:44:17;101842.19;;;0.71;100.00
35331;BME280;21441;52.190;20.910;2023-02-12T04:46:44;101844.25;;;0.64;100.00
35331;BME280;21441;52.190;20.910;2023-02-12T04:49:12;101850.28;;;0.66;100.00
35331;BME280;21441;52.190;20.910;2023-02-12T04:51:40;101849.56;;;0.63;100.00
35331;BME280;21441;52.190;20.910;2023-02-12T04:54:08;101855.13;;;0.55;100.00
35331;BME280;21441;52.190;20.910;2023-02-12T04:56:36;101859.53;;;0.54;100.00
35331;BME280;21441;52.190;20.910;2023-02-12T04:59:03;101863.16;;;0.52;100.00
35331;BME280;21441;52.190;20.910;2023-02-12T05:01:32;101867.09;;;0.62;100.00
35331;BME280;21441;52.190;20.910;2023-02-12T05:03:59;101873.34;;;0.59;100.00
35331;BME280;21441;52.190;20.910;2023-02-12T05:06:26;101886.78;;;0.52;100.00
35331;BME280;21441;52.190;20.910;2023-02-12T05:08:54;101884.38;;;0.47;100.00
35331;BME280;21441;52.190;20.910;2023-02-12T05:11:23;101881.59;;;0.50;100.00
35331;BME280;21441;52.190;20.910;2023-02-12T05:13:50;101894.03;;;0.47;100.00
35331;BME280;21441;52.190;20.910;2023-02-12T05:16:18;101903.47;;;0.51;100.00
35331;BME280;21441;52.190;20.910;2023-02-12T05:18:45;101900.13;;;0.47;100.00
35331;BME280;21441;52.190;20.910;2023-02-12T05:21:12;101906.03;;;0.52;100.00
35331;BME280;21441;52.190;20.910;2023-02-12T05:23:40;101906.91;;;0.53;100.00
35331;BME280;21441;52.190;20.910;2023-02-12T05:26:09;101908.66;;;0.52;100.00
35331;BME280;21441;52.190;20.910;2023-02-12T05:28:39;101913.06;;;0.52;100.00
35331;BME280;21441;52.190;20.910;2023-02-12T05:31:07;101919.84;;;0.57;100.00
35331;BME280;21441;52.190;20.910;2023-02-12T05:33:34;101918.16;;;0.55;100.00
35331;BME280;21441;52.190;20.910;2023-02-12T05:36:02;101925.28;;;0.53;100.00
35331;BME280;21441;52.190;20.910;2023-02-12T05:38:30;101929.00;;;0.47;100.00
35331;BME280;21441;52.190;20.910;2023-02-12T05:41:00;101935.91;;;0.50;100.00
35331;BME280;21441;52.190;20.910;2023-02-12T05:43:27;101937.53;;;0.52;100.00
35331;BME280;21441;52.190;20.910;2023-02-12T05:45:56;101942.78;;;0.52;100.00
35331;BME280;21441;52.190;20.910;2023-02-12T05:48:23;101953.09;;;0.57;100.00
35331;BME280;21441;52.190;20.910;2023-02-12T05:50:51;101959.44;;;0.53;100.00
35331;BME280;21441;52.190;20.910;2023-02-12T05:53:18;101960.03;;;0.59;100.00
35331;BME280;21441;52.190;20.910;2023-02-12T05:55:45;101956.81;;;0.53;100.00
35331;BME280;21441;52.190;20.910;2023-02-12T05:58:12;101959.34;;;0.54;100.00
35331;BME280;21441;52.190;20.910;2023-02-12T06:00:39;101974.84;;;0.60;100.00
35331;BME280;21441;52.190;20.910;2023-02-12T06:03:08;101977.47;;;0.60;100.00
35331;BME280;21441;52.190;20.910;2023-02-12T06:05:35;101982.59;;;0.64;100.00
35331;BME280;21441;52.190;20.910;2023-02-12T06:08:02;101984.97;;;0.70;100.00
35331;BME280;21441;52.190;20.910;2023-02-12T06:10:29;101996.59;;;0.64;100.00
35331;BME280;21441;52.190;20.910;2023-02-12T06:12:56;102005.00;;;0.72;100.00
35331;BME280;21441;52.190;20.910;2023-02-12T06:15:23;102004.19;;;0.70;100.00
35331;BME280;21441;52.190;20.910;2023-02-12T06:17:50;102009.41;;;0.72;100.00
35331;BME280;21441;52.190;20.910;2023-02-12T06:20:19;102012.88;;;0.72;100.00
35331;BME280;21441;52.190;20.910;2023-02-12T06:22:46;102017.97;;;0.77;100.00
35331;BME280;21441;52.190;20.910;2023-02-12T06:25:13;102020.59;;;0.77;100.00
35331;BME280;21441;52.190;20.910;2023-02-12T06:27:40;102017.59;;;0.64;100.00
35331;BME280;21441;52.190;20.910;2023-02-12T06:30:08;102027.13;;;0.67;100.00
35331;BME280;21441;52.190;20.910;2023-02-12T06:32:35;102018.41;;;0.66;100.00
35331;BME280;21441;52.190;20.910;2023-02-12T06:35:03;102021.63;;;0.73;100.00
35331;BME280;21441;52.190;20.910;2023-02-12T06:37:31;102019.78;;;0.75;100.00
35331;BME280;21441;52.190;20.910;2023-02-12T06:40:01;102030.31;;;0.75;100.00
35331;BME280;21441;52.190;20.910;2023-02-12T06:42:28;102028.47;;;0.77;100.00
35331;BME280;21441;52.190;20.910;2023-02-12T06:44:56;102027.34;;;0.82;100.00
35331;BME280;21441;52.190;20.910;2023-02-12T06:47:22;102027.94;;;0.89;100.00
35331;BME280;21441;52.190;20.910;2023-02-12T06:49:50;102029.66;;;0.90;100.00
35331;BME280;21441;52.190;20.910;2023-02-12T06:52:17;102029.13;;;1.02;100.00
35331;BME280;21441;52.190;20.910;2023-02-12T06:54:47;102025.00;;;0.97;100.00
35331;BME280;21441;52.190;20.910;2023-02-12T06:57:14;102034.06;;;1.10;100.00
35331;BME280;21441;52.190;20.910;2023-02-12T06:59:41;102038.78;;;1.22;100.00
35331;BME280;21441;52.190;20.910;2023-02-12T07:02:08;102042.72;;;1.33;100.00
35331;BME280;21441;52.190;20.910;2023-02-12T07:04:36;102053.88;;;1.58;100.00
35331;BME280;21441;52.190;20.910;2023-02-12T07:07:03;102041.84;;;1.72;100.00
35331;BME280;21441;52.190;20.910;2023-02-12T07:09:31;102045.03;;;1.59;100.00
35331;BME280;21441;52.190;20.910;2023-02-12T07:11:59;102054.81;;;1.56;100.00
35331;BME280;21441;52.190;20.910;2023-02-12T07:14:26;102052.59;;;1.67;100.00
35331;BME280;21441;52.190;20.910;2023-02-12T07:16:55;102054.06;;;1.73;100.00
35331;BME280;21441;52.190;20.910;2023-02-12T07:19:28;102066.19;;;1.77;100.00
35331;BME280;21441;52.190;20.910;2023-02-12T07:21:55;102063.47;;;1.97;99.09
35331;BME280;21441;52.190;20.910;2023-02-12T07:24:22;102068.47;;;2.22;92.69
35331;BME280;21441;52.190;20.910;2023-02-12T07:26:49;102065.72;;;2.24;90.71
35331;BME280;21441;52.190;20.910;2023-02-12T07:29:18;102063.53;;;2.87;87.95
35331;BME280;21441;52.190;20.910;2023-02-12T07:31:45;102062.22;;;3.64;77.98
35331;BME280;21441;52.190;20.910;2023-02-12T07:34:12;102059.59;;;4.60;71.58
35331;BME280;21441;52.190;20.910;2023-02-12T07:36:39;102048.00;;;5.80;58.23
35331;BME280;21441;52.190;20.910;2023-02-12T07:39:06;102032.19;;;6.34;54.47
35331;BME280;21441;52.190;20.910;2023-02-12T07:41:34;102034.00;;;6.61;52.99
35331;BME280;21441;52.190;20.910;2023-02-12T07:44:02;102034.19;;;6.85;51.53
35331;BME280;21441;52.190;20.910;2023-02-12T07:46:34;102041.38;;;6.96;51.06
35331;BME280;21441;52.190;20.910;2023-02-12T07:49:03;102038.69;;;6.70;51.51
35331;BME280;21441;52.190;20.910;2023-02-12T07:51:31;102039.50;;;7.11;50.47
35331;BME280;21441;52.190;20.910;2023-02-12T07:53:59;102043.81;;;6.86;50.74
35331;BME280;21441;52.190;20.910;2023-02-12T07:56:27;102052.31;;;6.10;52.38
35331;BME280;21441;52.190;20.910;2023-02-12T07:58:57;102051.72;;;7.00;51.08
35331;BME280;21441;52.190;20.910;2023-02-12T08:01:25;102059.69;;;7.00;50.15
35331;BME280;21441;52.190;20.910;2023-02-12T08:03:56;102052.47;;;6.35;51.58
35331;BME280;21441;52.190;20.910;2023-02-12T08:06:24;102064.31;;;6.30;52.48
35331;BME280;21441;52.190;20.910;2023-02-12T08:08:52;102064.69;;;6.78;51.16
35331;BME280;21441;52.190;20.910;2023-02-12T08:11:20;102072.03;;;5.91;52.16
35331;BME280;21441;52.190;20.910;2023-02-12T08:13:47;102078.53;;;5.57;53.59
35331;BME280;21441;52.190;20.910;2023-02-12T08:17:15;102083.09;;;5.69;55.09
35331;BME280;21441;52.190;20.910;2023-02-12T08:19:43;102085.13;;;5.21;54.63
35331;BME280;21441;52.190;20.910;2023-02-12T08:22:12;102090.38;;;4.61;56.84
35331;BME280;21441;52.190;20.910;2023-02-12T08:24:39;102083.19;;;4.79;56.75
35331;BME280;21441;52.190;20.910;2023-02-12T08:27:07;102094.38;;;4.52;57.39
35331;BME280;21441;52.190;20.910;2023-02-12T08:29:34;102102.25;;;4.53;57.67
35331;BME280;21441;52.190;20.910;2023-02-12T08:32:03;102096.19;;;4.51;56.76
35331;BME280;21441;52.190;20.910;2023-02-12T08:34:34;102093.91;;;4.61;57.61
35331;BME280;21441;52.190;20.910;2023-02-12T08:37:02;102097.91;;;4.37;58.53
35331;BME280;21441;52.190;20.910;2023-02-12T08:39:30;102093.91;;;4.29;58.99
35331;BME280;21441;52.190;20.910;2023-02-12T08:41:58;102096.47;;;4.31;59.51
35331;BME280;21441;52.190;20.910;2023-02-12T08:44:26;102092.03;;;4.31;59.59
35331;BME280;21441;52.190;20.910;2023-02-12T08:46:54;102093.16;;;3.78;61.08
35331;BME280;21441;52.190;20.910;2023-02-12T08:49:23;102087.13;;;3.76;62.28
35331;BME280;21441;52.190;20.910;2023-02-12T08:51:54;102092.47;;;3.75;62.22
35331;BME280;21441;52.190;20.910;2023-02-12T08:54:23;102077.44;;;3.08;64.47
35331;BME280;21441;52.190;20.910;2023-02-12T08:56:54;102067.00;;;3.40;65.83
35331;BME280;21441;52.190;20.910;2023-02-12T08:59:22;102085.75;;;3.69;64.07
35331;BME280;21441;52.190;20.910;2023-02-12T09:01:49;102091.84;;;3.36;64.66
35331;BME280;21441;52.190;20.910;2023-02-12T09:04:19;102099.22;;;3.47;66.59
35331;BME280;21441;52.190;20.910;2023-02-12T09:06:47;102102.97;;;3.76;64.53
35331;BME280;21441;52.190;20.910;2023-02-12T09:09:17;102107.69;;;4.03;61.16
35331;BME280;21441;52.190;20.910;2023-02-12T09:11:45;102107.78;;;4.49;59.09
35331;BME280;21441;52.190;20.910;2023-02-12T09:14:15;102103.84;;;5.02;56.89
35331;BME280;21441;52.190;20.910;2023-02-12T09:16:43;102105.31;;;5.67;54.42
35331;BME280;21441;52.190;20.910;2023-02-12T09:19:12;102101.09;;;6.49;53.31
35331;BME280;21441;52.190;20.910;2023-02-12T09:21:39;102093.88;;;8.32;48.48
35331;BME280;21441;52.190;20.910;2023-02-12T09:24:07;102100.38;;;6.87;48.91
35331;BME280;21441;52.190;20.910;2023-02-12T09:26:36;102104.56;;;6.22;51.00
35331;BME280;21441;52.190;20.910;2023-02-12T09:29:04;102113.78;;;6.02;52.62
35331;BME280;21441;52.190;20.910;2023-02-12T09:31:31;102095.81;;;7.93;48.62
35331;BME280;21441;52.190;20.910;2023-02-12T09:34:01;102090.88;;;10.34;44.04
35331;BME280;21441;52.190;20.910;2023-02-12T09:36:29;102088.81;;;11.96;40.21
35331;BME280;21441;52.190;20.910;2023-02-12T09:38:57;102071.25;;;13.59;37.24
35331;BME280;21441;52.190;20.910;2023-02-12T09:41:45;102077.28;;;13.98;36.87
35331;BME280;21441;52.190;20.910;2023-02-12T09:44:20;102087.22;;;14.71;34.66
35331;BME280;21441;52.190;20.910;2023-02-12T09:46:51;102073.38;;;15.54;33.60
35331;BME280;21441;52.190;20.910;2023-02-12T09:49:31;102067.09;;;16.81;31.54
35331;BME280;21441;52.190;20.910;2023-02-12T09:52:03;102075.44;;;16.37;31.15
35331;BME280;21441;52.190;20.910;2023-02-12T09:54:37;102077.19;;;17.20;30.48
35331;BME280;21441;52.190;20.910;2023-02-12T09:57:15;102075.19;;;17.78;29.89
35331;BME280;21441;52.190;20.910;2023-02-12T09:59:46;102069.22;;;18.39;29.41
35331;BME280;21441;52.190;20.910;2023-02-12T10:02:17;102067.47;;;19.30;28.79
35331;BME280;21441;52.190;20.910;2023-02-12T10:04:46;102066.72;;;18.83;28.46
35331;BME280;21441;52.190;20.910;2023-02-12T10:07:20;102065.97;;;20.53;26.73
35331;BME280;21441;52.190;20.910;2023-02-12T10:10:02;102028.91;;;22.21;24.94
35331;BME280;21441;52.190;20.910;2023-02-12T10:12:45;102052.63;;;22.54;23.66
35331;BME280;21441;52.190;20.910;2023-02-12T10:15:20;102051.44;;;22.08;23.66
35331;BME280;21441;52.190;20.910;2023-02-12T10:18:01;102054.75;;;20.56;25.19
35331;BME280;21441;52.190;20.910;2023-02-12T10:20:43;102045.72;;;20.70;24.92
35331;BME280;21441;52.190;20.910;2023-02-12T10:23:24;102058.66;;;21.18;24.92
35331;BME280;21441;52.190;20.910;2023-02-12T10:25:55;102049.91;;;22.54;23.63
35331;BME280;21441;52.190;20.910;2023-02-12T10:28:26;102059.81;;;22.07;24.32
35331;BME280;21441;52.190;20.910;2023-02-12T10:30:57;102060.63;;;20.38;25.92
35331;BME280;21441;52.190;20.910;2023-02-12T10:33:28;102065.50;;;21.14;25.83
35331;BME280;21441;52.190;20.910;2023-02-12T10:36:01;102058.81;;;20.45;25.98
35331;BME280;21441;52.190;20.910;2023-02-12T10:38:34;102050.50;;;20.68;25.61
35331;BME280;21441;52.190;20.910;2023-02-12T10:41:03;102059.50;;;18.99;27.27
35331;BME280;21441;52.190;20.910;2023-02-12T10:43:32;102062.91;;;20.19;26.27
35331;BME280;21441;52.190;20.910;2023-02-12T10:45:59;102050.13;;;20.13;26.44
35331;BME280;21441;52.190;20.910;2023-02-12T10:48:31;102059.16;;;22.93;23.63
35331;BME280;21441;52.190;20.910;2023-02-12T10:51:18;102050.06;;;23.65;23.11
35331;BME280;21441;52.190;20.910;2023-02-12T10:53:50;102041.13;;;23.38;22.32
35331;BME280;21441;52.190;20.910;2023-02-12T10:56:19;102038.44;;;22.85;23.41
35331;BME280;21441;52.190;20.910;2023-02-12T10:58:57;102033.19;;;25.96;21.57
35331;BME280;21441;52.190;20.910;2023-02-12T11:01:28;102030.78;;;28.64;19.45
35331;BME280;21441;52.190;20.910;2023-02-12T11:03:57;102030.13;;;27.59;19.42
35331;BME280;21441;52.190;20.910;2023-02-12T11:06:26;102037.75;;;27.57;19.30
35331;BME280;21441;52.190;20.910;2023-02-12T11:08:54;102051.09;;;23.64;22.31
35331;BME280;21441;52.190;20.910;2023-02-12T11:11:23;102043.69;;;22.86;22.87
35331;BME280;21441;52.190;20.910;2023-02-12T11:13:53;102052.28;;;21.04;24.95
35331;BME280;21441;52.190;20.910;2023-02-12T11:16:30;102045.13;;;22.96;23.31
35331;BME280;21441;52.190;20.910;2023-02-12T11:19:00;102049.94;;;23.34;22.64
35331;BME280;21441;52.190;20.910;2023-02-12T11:21:30;102058.63;;;24.27;22.24
35331;BME280;21441;52.190;20.910;2023-02-12T11:24:19;102050.25;;;24.29;22.76
35331;BME280;21441;52.190;20.910;2023-02-12T11:26:48;102049.97;;;28.18;19.46
35331;BME280;21441;52.190;20.910;2023-02-12T11:29:20;102039.94;;;27.31;19.00
35331;BME280;21441;52.190;20.910;2023-02-12T11:32:02;102021.69;;;29.75;17.82
35331;BME280;21441;52.190;20.910;2023-02-12T11:34:29;102037.06;;;26.49;20.12
35331;BME280;21441;52.190;20.910;2023-02-12T11:36:57;102044.19;;;25.09;21.13
35331;BME280;21441;52.190;20.910;2023-02-12T11:39:27;102045.97;;;22.90;23.28
35331;BME280;21441;52.190;20.910;2023-02-12T11:41:57;102049.81;;;20.59;25.13
35331;BME280;21441;52.190;20.910;2023-02-12T11:44:28;102046.88;;;21.04;24.73
35331;BME280;21441;52.190;20.910;2023-02-12T11:46:58;102047.78;;;19.74;25.73
35331;BME280;21441;52.190;20.910;2023-02-12T11:49:30;102035.06;;;22.83;23.94
35331;BME280;21441;52.190;20.910;2023-02-12T11:52:00;102036.28;;;24.12;22.44
35331;BME280;21441;52.190;20.910;2023-02-12T11:54:31;102013.41;;;25.02;21.45
35331;BME280;21441;52.190;20.910;2023-02-12T11:57:00;102025.66;;;22.92;22.64
35331;BME280;21441;52.190;20.910;2023-02-12T11:59:33;102029.44;;;24.91;21.08
35331;BME280;21441;52.190;20.910;2023-02-12T12:02:13;102048.75;;;21.04;24.11
35331;BME280;21441;52.190;20.910;2023-02-12T12:04:45;102045.59;;;19.84;25.60
35331;BME280;21441;52.190;20.910;2023-02-12T12:07:20;102030.16;;;22.12;23.43
35331;BME280;21441;52.190;20.910;2023-02-12T12:09:54;102036.56;;;24.36;21.98
35331;BME280;21441;52.190;20.910;2023-02-12T12:12:30;102029.72;;;25.89;20.79
35331;BME280;21441;52.190;20.910;2023-02-12T12:15:11;102026.56;;;27.11;20.15
35331;BME280;21441;52.190;20.910;2023-02-12T12:18:05;102011.16;;;30.49;17.75
35331;BME280;21441;52.190;20.910;2023-02-12T12:20:59;102017.00;;;27.61;19.50
35331;BME280;21441;52.190;20.910;2023-02-12T12:23:34;102012.72;;;28.68;18.57
35331;BME280;21441;52.190;20.910;2023-02-12T12:26:07;102013.59;;;23.66;21.44
35331;BME280;21441;52.190;20.910;2023-02-12T12:28:41;102024.78;;;20.57;24.78
35331;BME280;21441;52.190;20.910;2023-02-12T12:31:12;102018.06;;;21.73;24.01
35331;BME280;21441;52.190;20.910;2023-02-12T12:33:43;102011.59;;;22.22;23.57
35331;BME280;21441;52.190;20.910;2023-02-12T12:39:23;102014.78;;;22.52;23.14
35331;BME280;21441;52.190;20.910;2023-02-12T12:42:11;102014.97;;;19.39;25.67
35331;BME280;21441;52.190;20.910;2023-02-12T12:44:52;102034.84;;;14.93;31.17
35331;BME280;21441;52.190;20.910;2023-02-12T12:47:31;102037.59;;;14.83;32.45
35331;BME280;21441;52.190;20.910;2023-02-12T12:50:16;102023.72;;;15.40;31.71
35331;BME280;21441;52.190;20.910;2023-02-12T12:53:13;102034.00;;;13.66;34.79
35331;BME280;21441;52.190;20.910;2023-02-12T12:56:22;102031.16;;;15.46;32.26
35331;BME280;21441;52.190;20.910;2023-02-12T12:59:11;102022.34;;;19.30;27.72
35331;BME280;21441;52.190;20.910;2023-02-12T13:01:56;102023.19;;;18.01;27.83
35331;BME280;21441;52.190;20.910;2023-02-12T13:04:36;102020.25;;;17.07;29.63
35331;BME280;21441;52.190;20.910;2023-02-12T13:07:12;102032.03;;;16.57;30.54
35331;BME280;21441;52.190;20.910;2023-02-12T13:10:05;102026.75;;;16.14;30.57